WetterOnline ( https://www.wetteronline.at )

Wetter aktuell Lauterbach (Hessen)

Aktuelles Wetter: Hoherodskopf/Vogelsberg (743m)

6-stündlich | Neueste Meldungen
Ortszeit Temperatur Wetter
So, 25.09. 2:00 10.0° C leichter Regen
Sa, 24.09. 20:00 11.8° C bedeckt
Sa, 24.09. 14:00 13.4° C wolkig
Sa, 24.09. 8:00 10.2° C bedeckt
Sa, 24.09. 2:00 10.2° C bedeckt
Fr, 23.09. 20:00 10.8° C bedeckt
Fr, 23.09. 14:00 12.0° C leicht bewölkt
Fr, 23.09. 8:00 7.3° C bedeckt
Ortszeit Temperatur Wetter
So, 25.09. 3:30 9.3° C Sprühregen
So, 25.09. 3:20 9.3° C Sprühregen
So, 25.09. 3:10 9.3° C Sprühregen
So, 25.09. 3:00 9.5° C leichter Regen
So, 25.09. 2:50 9.5° C leichter Regen
So, 25.09. 2:40 9.5° C leichter Regen
So, 25.09. 2:30 9.8° C leichter Regen
So, 25.09. 2:00 10.0° C leichter Regen
So, 25.09. 1:30 9.2° C leichter Regen
So, 25.09. 1:00 9.2° C leichter Regen
So, 25.09. 0:30 9.4° C leichter Regen
Ortszeit Relative Feuchte Sichtweite
So, 25.09. 2:00 82% 28 km
Sa, 24.09. 20:00 73% 40 km
Sa, 24.09. 14:00 57% 18 km
Sa, 24.09. 8:00 71% 55 km
Sa, 24.09. 2:00 73% 40 km
Fr, 23.09. 20:00 71% 45 km
Fr, 23.09. 14:00 59% >70 km
Fr, 23.09. 8:00 72% 45 km
Ortszeit Relative Feuchte Sichtweite
So, 25.09. 3:30 85% 40 km
So, 25.09. 3:20 85% -
So, 25.09. 3:10 86% -
So, 25.09. 3:00 85% 40 km
So, 25.09. 2:50 85% -
So, 25.09. 2:40 84% -
So, 25.09. 2:30 83% 30 km
So, 25.09. 2:00 82% 28 km
So, 25.09. 1:30 88% 14 km
So, 25.09. 1:00 90% 15 km
So, 25.09. 0:30 95% 8 km
Ortszeit Niederschlagsmenge Niederschlagsart
So, 25.09. 2:00 14 l/m2 in 6 Std. Regen
Sa, 24.09. 20:00 0.1 l/m2 in 12 Std. Regen
Sa, 24.09. 14:00 0.0 l/m2 in 6 Std. -
Sa, 24.09. 8:00 0.0 l/m2 in 12 Std. -
Sa, 24.09. 2:00 0.0 l/m2 in 6 Std. -
Fr, 23.09. 20:00 0.0 l/m2 in 12 Std. -
Fr, 23.09. 14:00 0.0 l/m2 in 6 Std. -
Fr, 23.09. 8:00 0.0 l/m2 in 12 Std. -
Ortszeit Niederschlagsmenge Niederschlagsart
So, 25.09. 3:30 0.1 l/m2 in 1 Std. -
So, 25.09. 3:20 keine Meldung -
So, 25.09. 3:10 keine Meldung -
So, 25.09. 3:00 0.4 l/m2 in 1 Std. Regen
So, 25.09. 2:50 keine Meldung -
So, 25.09. 2:40 keine Meldung -
So, 25.09. 2:30 0.2 l/m2 in 1 Std. -
So, 25.09. 2:00 1.5 l/m2 in 1 Std. Regen
So, 25.09. 1:30 0.9 l/m2 in 1 Std. -
So, 25.09. 1:00 3.3 l/m2 in 1 Std. Regen
So, 25.09. 0:30 1.8 l/m2 in 1 Std. -
Ortszeit Stärke Spitze Richtung
km/h Bft. km/h Grad Sektor
So, 25.09. 2:00 2 1 17 130° SO
Sa, 24.09. 20:00 4 1 22 190° S
Sa, 24.09. 14:00 11 2 22 160° S
Sa, 24.09. 8:00 4 1 11 300° NW
Sa, 24.09. 2:00 7 2 18 280° W
Fr, 23.09. 20:00 11 2 29 200° S
Fr, 23.09. 14:00 15 3 31 180° S
Fr, 23.09. 8:00 18 3 29 130° SO
Ortszeit Stärke Spitze Richtung
km/h Bft. km/h Grad Sektor
So, 25.09. 3:30 9 2 9 340° N
So, 25.09. 3:20 9 2 - 340° N
So, 25.09. 3:10 7 2 - 330° NW
So, 25.09. 3:00 7 2 7 310° NW
So, 25.09. 2:50 7 2 - 310° NW
So, 25.09. 2:40 6 1 - 310° NW
So, 25.09. 2:30 4 1 4 10° N
So, 25.09. 2:00 2 1 11 130° SO
So, 25.09. 1:30 9 2 9 80° O
So, 25.09. 1:00 7 2 11 60° NO
So, 25.09. 0:30 7 2 11 120° SO
Ortszeit Untergrenze Bedeckung Gattung
total tief tief mittel hoch
So, 25.09. 2:00 1500 m 7/8 7/8 - - -
Sa, 24.09. 20:00 1290 m 8/8 8/8 - - -
Sa, 24.09. 14:00 2100 m 7/8 3/8 - - -
Sa, 24.09. 8:00 4200 m 8/8 8/8 - - -
Sa, 24.09. 2:00 4500 m 8/8 8/8 - - -
Fr, 23.09. 20:00 4500 m 8/8 8/8 - - -
Fr, 23.09. 14:00 6000 m 8/8 1/8 - - -
Fr, 23.09. 8:00 5400 m 8/8 8/8 - - -
Ortszeit Bedeckungsgrad in Achtel und Wolkenuntergrenze
So, 25.09. 3:30 7(1500m) 7(1800m)
So, 25.09. 3:20 7(1500m) 7(1800m)
So, 25.09. 3:10 7
So, 25.09. 3:00 8(1500m)
So, 25.09. 2:50 8(1500m)
So, 25.09. 2:40 7
So, 25.09. 2:30 3(1350m) 7(1500m)
So, 25.09. 2:00 7(1500m)
So, 25.09. 1:30 1(1080m) 7(1410m)
So, 25.09. 1:00 5(1410m)
So, 25.09. 0:30 1(1110m) 6(1500m)
Ortszeit Luftdruck NN (hPa) Tendenz (hPa in 3 Std.)
So, 25.09. 2:00 1013 - 0,2
Sa, 24.09. 20:00 1012 + 0,2
Sa, 24.09. 14:00 1012 0,0
Sa, 24.09. 8:00 1013 - 0,4
Sa, 24.09. 2:00 1014 - 0,5
Fr, 23.09. 20:00 1016 - 0,3
Fr, 23.09. 14:00 1017 - 0,8
Fr, 23.09. 8:00 1019 - 0,8
Ortszeit Luftdruck NN (hPa) Tendenz (hPa in 3 Std.)
So, 25.09. 3:30 1013 - 0,7
So, 25.09. 3:20 1013 keine Meldung
So, 25.09. 3:10 1013 keine Meldung
So, 25.09. 3:00 1013 - 0,6
So, 25.09. 2:50 1013 keine Meldung
So, 25.09. 2:40 1013 keine Meldung
So, 25.09. 2:30 1013 - 0,5
So, 25.09. 2:00 1013 - 0,2
So, 25.09. 1:30 1013 - 0,3
So, 25.09. 1:00 1013 + 0,1
So, 25.09. 0:30 1014 + 0,2
Ortszeit Schneehöhe (cm)
So, 25.09. 2:00 0
Sa, 24.09. 20:00 0
Sa, 24.09. 14:00 0
Sa, 24.09. 8:00 0
Sa, 24.09. 2:00 0
Fr, 23.09. 20:00 0
Fr, 23.09. 14:00 0
Fr, 23.09. 8:00 0
Ortszeit Schneehöhe (cm)
So, 25.09. 3:30 0
So, 25.09. 3:20 0
So, 25.09. 3:10 0
So, 25.09. 3:00 0
So, 25.09. 2:50 0
So, 25.09. 2:40 0
So, 25.09. 2:30 0
So, 25.09. 2:00 0
So, 25.09. 1:30 0
So, 25.09. 1:00 0
So, 25.09. 0:30 0
Link zu dieser Seite / Seite empfehlen

Das Wetter in ...